createdAt,value
2023-05-06T00:02:00.299Z,7.40
2023-05-06T00:12:25.862Z,6.50
2023-05-06T00:22:51.636Z,7.50
2023-05-06T00:33:17.420Z,6.80
2023-05-06T00:43:43.313Z,7.10
2023-05-06T00:54:09.385Z,6.90
2023-05-06T01:04:36.093Z,6.20
2023-05-06T01:15:09.933Z,7.50
2023-05-06T01:25:35.433Z,7.20
2023-05-06T01:36:11.104Z,7.20
2023-05-06T01:46:37.481Z,7.30
2023-05-06T01:57:04.086Z,6.30
2023-05-06T02:07:29.844Z,5.80
2023-05-06T02:17:57.246Z,5.90
2023-05-06T02:28:23.129Z,6.00
2023-05-06T02:38:48.702Z,5.30
2023-05-06T02:49:14.634Z,5.50
2023-05-06T02:59:40.654Z,6.70
2023-05-06T03:10:07.648Z,6.10
2023-05-06T03:20:33.235Z,5.70
2023-05-06T03:30:59.291Z,6.10
2023-05-06T03:41:26.169Z,4.80
2023-05-06T03:51:53.505Z,6.40
2023-05-06T04:02:19.202Z,5.40
2023-05-06T04:12:44.913Z,6.10
2023-05-06T04:23:10.921Z,6.20
2023-05-06T04:33:36.967Z,7.00
2023-05-06T04:44:04.938Z,6.70
2023-05-06T04:54:30.793Z,5.50
2023-05-06T05:04:56.596Z,5.10
2023-05-06T05:15:22.450Z,6.50
2023-05-06T05:25:47.996Z,5.90
2023-05-06T05:36:15.424Z,6.20
2023-05-06T05:46:40.908Z,5.80
2023-05-06T05:57:06.494Z,6.40
2023-05-06T06:07:32.055Z,6.00
2023-05-06T06:17:57.797Z,6.20
2023-05-06T06:28:24.551Z,6.30
2023-05-06T06:38:50.292Z,6.00
2023-05-06T06:49:15.790Z,5.80
2023-05-06T06:59:41.347Z,6.20
2023-05-06T07:10:08.709Z,5.10
2023-05-06T07:20:37.661Z,6.70
2023-05-06T07:31:03.809Z,6.80
2023-05-06T07:41:29.810Z,6.20
2023-05-06T07:51:55.762Z,6.20
2023-05-06T08:02:22.037Z,5.30
2023-05-06T08:12:47.642Z,5.80
2023-05-06T08:23:13.353Z,6.40
2023-05-06T08:33:39.117Z,5.50
2023-05-06T08:44:06.810Z,6.00
2023-05-06T08:54:37.192Z,5.70
2023-05-06T09:05:04.039Z,6.20
2023-05-06T09:15:40.138Z,5.20
2023-05-06T09:26:07.059Z,6.50
2023-05-06T09:36:33.082Z,5.10
2023-05-06T09:46:59.620Z,5.80
2023-05-06T09:57:25.821Z,7.80
2023-05-06T10:07:53.493Z,7.00
2023-05-06T10:18:20.877Z,7.00
2023-05-06T10:28:53.221Z,8.10
2023-05-06T10:39:20.326Z,8.40
2023-05-06T10:50:06.395Z,9.40
2023-05-06T11:00:35.786Z,9.80
2023-05-06T11:11:43.797Z,11.10
2023-05-06T11:22:09.842Z,11.10
2023-05-06T11:32:36.267Z,10.50
2023-05-06T11:43:14.072Z,9.80
2023-05-06T11:53:40.264Z,10.30
2023-05-06T12:04:06.852Z,10.70
2023-05-06T12:14:33.423Z,11.40
2023-05-06T12:24:59.225Z,10.70
2023-05-06T12:35:33.196Z,11.10
2023-05-06T12:46:07.538Z,10.30
2023-05-06T12:56:33.193Z,12.30
2023-05-06T13:06:59.109Z,12.90
2023-05-06T13:17:26.658Z,13.20
2023-05-06T13:27:52.592Z,16.30
2023-05-06T13:38:18.107Z,13.60
2023-05-06T13:48:44.056Z,15.70
2023-05-06T13:59:11.957Z,19.30
2023-05-06T14:09:38.126Z,22.70
2023-05-06T14:20:05.321Z,25.40
2023-05-06T14:30:32.600Z,21.60
2023-05-06T14:40:59.455Z,17.50
2023-05-06T14:51:25.643Z,17.30
2023-05-06T15:01:51.599Z,13.10
2023-05-06T15:12:17.229Z,12.30
2023-05-06T15:22:43.326Z,10.30
2023-05-06T15:33:09.040Z,10.80
2023-05-06T15:43:37.580Z,12.70
2023-05-06T15:54:04.519Z,12.50
2023-05-06T16:15:16.009Z,13.90
2023-05-06T16:25:42.045Z,13.70
2023-05-06T16:36:08.276Z,14.20
2023-05-06T16:46:34.576Z,13.80
2023-05-06T16:57:00.132Z,16.20
2023-05-06T17:07:26.210Z,15.30
2023-05-06T17:17:51.972Z,15.50
2023-05-06T17:28:18.799Z,15.90
2023-05-06T17:38:44.888Z,15.20
2023-05-06T17:49:11.026Z,13.60
2023-05-06T17:59:37.720Z,13.10
2023-05-06T18:10:03.031Z,11.20
2023-05-06T18:20:28.514Z,11.30
2023-05-06T18:30:54.584Z,13.10
2023-05-06T18:41:20.362Z,11.10
2023-05-06T18:51:46.688Z,12.10
2023-05-06T19:02:12.425Z,14.90
2023-05-06T19:12:38.566Z,12.60
2023-05-06T19:23:05.131Z,14.90
2023-05-06T19:33:30.723Z,12.50
2023-05-06T19:43:56.734Z,12.70
2023-05-06T19:54:22.654Z,13.30
2023-05-06T20:04:49.201Z,12.80
2023-05-06T20:15:14.962Z,12.00
2023-05-06T20:25:41.116Z,12.00
2023-05-06T20:36:07.995Z,10.90
2023-05-06T20:46:34.124Z,12.50
2023-05-06T20:56:59.957Z,12.00
2023-05-06T21:07:25.893Z,12.80
2023-05-06T21:17:52.008Z,12.00
2023-05-06T21:28:18.016Z,10.80
2023-05-06T21:38:43.761Z,10.60
2023-05-06T21:49:09.335Z,11.20
2023-05-06T21:59:35.212Z,12.40
2023-05-06T22:10:00.931Z,9.90
2023-05-06T22:20:26.863Z,9.80
2023-05-06T22:30:52.646Z,10.80
2023-05-06T22:41:19.866Z,10.40
2023-05-06T22:51:45.982Z,12.40
2023-05-06T23:02:12.623Z,13.40
2023-05-06T23:12:38.547Z,14.10
2023-05-06T23:23:04.909Z,12.50
2023-05-06T23:33:30.520Z,12.70
2023-05-06T23:43:56.101Z,14.40
2023-05-06T23:54:22.229Z,12.10
